sensor_id;sensor_type;location;lat;lon;timestamp;P1;durP1;ratioP1;P2;durP2;ratioP2
27428;SDS011;14881;48.092;11.574;2022-10-31T00:01:26;13.05;;;6.75;;
27428;SDS011;14881;48.092;11.574;2022-10-31T00:03:55;15.73;;;6.13;;
27428;SDS011;14881;48.092;11.574;2022-10-31T00:06:23;12.05;;;6.63;;
27428;SDS011;14881;48.092;11.574;2022-10-31T00:08:51;18.63;;;7.78;;
27428;SDS011;14881;48.092;11.574;2022-10-31T00:11:21;17.83;;;6.22;;
27428;SDS011;14881;48.092;11.574;2022-10-31T00:13:50;13.48;;;6.22;;
27428;SDS011;14881;48.092;11.574;2022-10-31T00:16:19;13.93;;;5.75;;
27428;SDS011;14881;48.092;11.574;2022-10-31T00:18:48;12.48;;;5.35;;
27428;SDS011;14881;48.092;11.574;2022-10-31T00:21:16;19.20;;;6.82;;
27428;SDS011;14881;48.092;11.574;2022-10-31T00:23:46;15.00;;;7.05;;
27428;SDS011;14881;48.092;11.574;2022-10-31T00:26:14;13.93;;;5.82;;
27428;SDS011;14881;48.092;11.574;2022-10-31T00:28:42;16.00;;;6.03;;
27428;SDS011;14881;48.092;11.574;2022-10-31T00:31:12;20.30;;;6.85;;
27428;SDS011;14881;48.092;11.574;2022-10-31T00:33:40;14.40;;;6.75;;
27428;SDS011;14881;48.092;11.574;2022-10-31T00:36:11;16.35;;;6.45;;
27428;SDS011;14881;48.092;11.574;2022-10-31T00:38:40;12.73;;;6.55;;
27428;SDS011;14881;48.092;11.574;2022-10-31T00:41:08;14.88;;;6.68;;
27428;SDS011;14881;48.092;11.574;2022-10-31T00:43:36;16.75;;;6.97;;
27428;SDS011;14881;48.092;11.574;2022-10-31T00:46:04;14.00;;;6.10;;
27428;SDS011;14881;48.092;11.574;2022-10-31T00:48:33;10.95;;;6.38;;
27428;SDS011;14881;48.092;11.574;2022-10-31T00:51:00;12.88;;;6.70;;
27428;SDS011;14881;48.092;11.574;2022-10-31T00:53:29;20.00;;;6.82;;
27428;SDS011;14881;48.092;11.574;2022-10-31T00:55:57;15.85;;;6.93;;
27428;SDS011;14881;48.092;11.574;2022-10-31T00:58:24;13.32;;;6.60;;
27428;SDS011;14881;48.092;11.574;2022-10-31T01:00:54;13.85;;;6.53;;
27428;SDS011;14881;48.092;11.574;2022-10-31T01:03:22;14.55;;;6.50;;
27428;SDS011;14881;48.092;11.574;2022-10-31T01:05:59;16.50;;;7.07;;
27428;SDS011;14881;48.092;11.574;2022-10-31T01:08:31;18.25;;;6.30;;
27428;SDS011;14881;48.092;11.574;2022-10-31T01:10:59;12.70;;;6.32;;
27428;SDS011;14881;48.092;11.574;2022-10-31T01:13:28;17.02;;;6.55;;
27428;SDS011;14881;48.092;11.574;2022-10-31T01:15:57;15.57;;;6.72;;
27428;SDS011;14881;48.092;11.574;2022-10-31T01:18:25;15.52;;;6.57;;
27428;SDS011;14881;48.092;11.574;2022-10-31T01:20:59;14.57;;;6.18;;
27428;SDS011;14881;48.092;11.574;2022-10-31T01:23:27;15.82;;;6.32;;
27428;SDS011;14881;48.092;11.574;2022-10-31T01:25:59;16.30;;;6.13;;
27428;SDS011;14881;48.092;11.574;2022-10-31T01:28:36;11.38;;;6.43;;
27428;SDS011;14881;48.092;11.574;2022-10-31T01:31:06;17.27;;;7.28;;
27428;SDS011;14881;48.092;11.574;2022-10-31T01:33:35;13.35;;;6.40;;
27428;SDS011;14881;48.092;11.574;2022-10-31T01:36:12;14.10;;;6.68;;
27428;SDS011;14881;48.092;11.574;2022-10-31T01:38:43;13.52;;;6.85;;
27428;SDS011;14881;48.092;11.574;2022-10-31T01:41:12;17.05;;;6.45;;
27428;SDS011;14881;48.092;11.574;2022-10-31T01:43:41;13.73;;;6.53;;
27428;SDS011;14881;48.092;11.574;2022-10-31T01:46:10;12.25;;;6.72;;
27428;SDS011;14881;48.092;11.574;2022-10-31T01:48:39;11.90;;;6.53;;
27428;SDS011;14881;48.092;11.574;2022-10-31T01:51:09;12.82;;;6.10;;
27428;SDS011;14881;48.092;11.574;2022-10-31T01:53:42;14.07;;;6.00;;
27428;SDS011;14881;48.092;11.574;2022-10-31T01:56:11;16.38;;;5.95;;
27428;SDS011;14881;48.092;11.574;2022-10-31T01:58:42;11.60;;;6.45;;
27428;SDS011;14881;48.092;11.574;2022-10-31T02:01:13;14.52;;;6.15;;
27428;SDS011;14881;48.092;11.574;2022-10-31T02:03:44;12.20;;;6.78;;
27428;SDS011;14881;48.092;11.574;2022-10-31T02:06:19;12.52;;;5.82;;
27428;SDS011;14881;48.092;11.574;2022-10-31T02:08:55;12.82;;;6.10;;
27428;SDS011;14881;48.092;11.574;2022-10-31T02:11:26;12.25;;;6.43;;
27428;SDS011;14881;48.092;11.574;2022-10-31T02:13:57;17.10;;;6.50;;
27428;SDS011;14881;48.092;11.574;2022-10-31T02:16:26;12.32;;;6.10;;
27428;SDS011;14881;48.092;11.574;2022-10-31T02:18:53;16.02;;;6.53;;
27428;SDS011;14881;48.092;11.574;2022-10-31T02:21:24;15.50;;;6.35;;
27428;SDS011;14881;48.092;11.574;2022-10-31T02:27:10;12.48;;;5.70;;
27428;SDS011;14881;48.092;11.574;2022-10-31T02:30:03;13.70;;;6.50;;
27428;SDS011;14881;48.092;11.574;2022-10-31T02:32:37;9.75;;;5.72;;
27428;SDS011;14881;48.092;11.574;2022-10-31T02:35:14;15.63;;;6.78;;
27428;SDS011;14881;48.092;11.574;2022-10-31T02:37:55;7.20;;;5.50;;
27428;SDS011;14881;48.092;11.574;2022-10-31T02:40:30;12.82;;;6.63;;
27428;SDS011;14881;48.092;11.574;2022-10-31T02:43:05;11.60;;;5.38;;
27428;SDS011;14881;48.092;11.574;2022-10-31T02:45:38;13.43;;;5.68;;
27428;SDS011;14881;48.092;11.574;2022-10-31T02:48:17;13.25;;;5.25;;
27428;SDS011;14881;48.092;11.574;2022-10-31T02:50:48;13.38;;;6.05;;
27428;SDS011;14881;48.092;11.574;2022-10-31T02:53:21;13.55;;;6.22;;
27428;SDS011;14881;48.092;11.574;2022-10-31T02:55:50;11.50;;;5.80;;
27428;SDS011;14881;48.092;11.574;2022-10-31T02:58:24;10.90;;;5.60;;
27428;SDS011;14881;48.092;11.574;2022-10-31T03:00:59;12.57;;;5.78;;
27428;SDS011;14881;48.092;11.574;2022-10-31T03:03:40;17.58;;;5.80;;
27428;SDS011;14881;48.092;11.574;2022-10-31T03:06:20;17.52;;;6.50;;
27428;SDS011;14881;48.092;11.574;2022-10-31T03:08:54;8.73;;;5.03;;
27428;SDS011;14881;48.092;11.574;2022-10-31T03:14:02;12.00;;;5.40;;
27428;SDS011;14881;48.092;11.574;2022-10-31T03:19:15;14.40;;;6.55;;
27428;SDS011;14881;48.092;11.574;2022-10-31T03:21:47;10.00;;;5.38;;
27428;SDS011;14881;48.092;11.574;2022-10-31T03:24:19;12.63;;;6.25;;
27428;SDS011;14881;48.092;11.574;2022-10-31T03:26:50;11.43;;;5.57;;
27428;SDS011;14881;48.092;11.574;2022-10-31T03:29:22;14.68;;;6.22;;
27428;SDS011;14881;48.092;11.574;2022-10-31T03:31:54;16.70;;;6.47;;
27428;SDS011;14881;48.092;11.574;2022-10-31T03:34:26;12.32;;;5.50;;
27428;SDS011;14881;48.092;11.574;2022-10-31T03:36:57;10.57;;;5.68;;
27428;SDS011;14881;48.092;11.574;2022-10-31T03:39:29;13.00;;;5.40;;
27428;SDS011;14881;48.092;11.574;2022-10-31T03:42:06;13.75;;;6.15;;
27428;SDS011;14881;48.092;11.574;2022-10-31T03:44:38;12.95;;;5.53;;
27428;SDS011;14881;48.092;11.574;2022-10-31T03:47:10;11.18;;;5.90;;
27428;SDS011;14881;48.092;11.574;2022-10-31T03:49:39;17.05;;;5.55;;
27428;SDS011;14881;48.092;11.574;2022-10-31T03:52:09;11.68;;;5.60;;
27428;SDS011;14881;48.092;11.574;2022-10-31T03:54:43;12.05;;;6.05;;
27428;SDS011;14881;48.092;11.574;2022-10-31T03:57:14;12.57;;;6.10;;
27428;SDS011;14881;48.092;11.574;2022-10-31T03:59:47;10.90;;;5.97;;
27428;SDS011;14881;48.092;11.574;2022-10-31T04:02:20;11.77;;;5.97;;
27428;SDS011;14881;48.092;11.574;2022-10-31T04:04:54;10.02;;;5.47;;
27428;SDS011;14881;48.092;11.574;2022-10-31T04:07:23;16.08;;;6.15;;
27428;SDS011;14881;48.092;11.574;2022-10-31T04:09:55;14.20;;;5.55;;
27428;SDS011;14881;48.092;11.574;2022-10-31T04:12:26;17.25;;;5.38;;
27428;SDS011;14881;48.092;11.574;2022-10-31T04:14:55;11.88;;;5.90;;
27428;SDS011;14881;48.092;11.574;2022-10-31T04:17:24;13.73;;;5.78;;
27428;SDS011;14881;48.092;11.574;2022-10-31T04:19:59;8.50;;;5.10;;
27428;SDS011;14881;48.092;11.574;2022-10-31T04:22:28;9.63;;;5.47;;
27428;SDS011;14881;48.092;11.574;2022-10-31T04:24:58;15.57;;;5.97;;
27428;SDS011;14881;48.092;11.574;2022-10-31T04:27:25;12.95;;;5.57;;
27428;SDS011;14881;48.092;11.574;2022-10-31T04:29:53;13.30;;;5.80;;
27428;SDS011;14881;48.092;11.574;2022-10-31T04:32:20;12.75;;;5.70;;
27428;SDS011;14881;48.092;11.574;2022-10-31T04:34:48;11.40;;;5.57;;
27428;SDS011;14881;48.092;11.574;2022-10-31T04:37:17;12.82;;;5.78;;
27428;SDS011;14881;48.092;11.574;2022-10-31T04:39:45;10.18;;;5.35;;
27428;SDS011;14881;48.092;11.574;2022-10-31T04:42:12;9.07;;;5.18;;
27428;SDS011;14881;48.092;11.574;2022-10-31T04:44:40;12.00;;;5.43;;
27428;SDS011;14881;48.092;11.574;2022-10-31T04:47:08;10.40;;;4.97;;
27428;SDS011;14881;48.092;11.574;2022-10-31T04:49:35;13.65;;;5.60;;
27428;SDS011;14881;48.092;11.574;2022-10-31T04:52:03;13.88;;;5.68;;
27428;SDS011;14881;48.092;11.574;2022-10-31T04:54:32;11.32;;;5.80;;
27428;SDS011;14881;48.092;11.574;2022-10-31T04:57:00;9.43;;;5.38;;
27428;SDS011;14881;48.092;11.574;2022-10-31T04:59:28;9.93;;;5.15;;
27428;SDS011;14881;48.092;11.574;2022-10-31T05:01:55;13.45;;;5.50;;
27428;SDS011;14881;48.092;11.574;2022-10-31T05:04:23;8.48;;;5.03;;
27428;SDS011;14881;48.092;11.574;2022-10-31T05:06:51;12.00;;;4.70;;
27428;SDS011;14881;48.092;11.574;2022-10-31T05:09:18;17.63;;;5.60;;
27428;SDS011;14881;48.092;11.574;2022-10-31T05:11:47;10.85;;;4.75;;
27428;SDS011;14881;48.092;11.574;2022-10-31T05:14:15;8.18;;;4.95;;
27428;SDS011;14881;48.092;11.574;2022-10-31T05:16:43;12.43;;;5.43;;
27428;SDS011;14881;48.092;11.574;2022-10-31T05:19:13;9.13;;;5.13;;
27428;SDS011;14881;48.092;11.574;2022-10-31T05:21:41;10.85;;;4.93;;
27428;SDS011;14881;48.092;11.574;2022-10-31T05:24:11;9.68;;;5.28;;
27428;SDS011;14881;48.092;11.574;2022-10-31T05:26:38;14.38;;;5.18;;
27428;SDS011;14881;48.092;11.574;2022-10-31T05:29:10;13.20;;;5.15;;
27428;SDS011;14881;48.092;11.574;2022-10-31T05:31:38;11.55;;;5.40;;
27428;SDS011;14881;48.092;11.574;2022-10-31T05:34:05;8.82;;;4.60;;
27428;SDS011;14881;48.092;11.574;2022-10-31T05:36:33;7.78;;;4.75;;
27428;SDS011;14881;48.092;11.574;2022-10-31T05:39:00;12.13;;;6.03;;
27428;SDS011;14881;48.092;11.574;2022-10-31T05:41:28;13.27;;;5.22;;
27428;SDS011;14881;48.092;11.574;2022-10-31T05:43:56;11.48;;;5.10;;
27428;SDS011;14881;48.092;11.574;2022-10-31T05:46:25;8.48;;;4.85;;
27428;SDS011;14881;48.092;11.574;2022-10-31T05:48:53;14.70;;;6.30;;
27428;SDS011;14881;48.092;11.574;2022-10-31T05:51:26;8.82;;;5.35;;
27428;SDS011;14881;48.092;11.574;2022-10-31T05:53:54;10.90;;;4.72;;
27428;SDS011;14881;48.092;11.574;2022-10-31T05:56:22;7.28;;;4.05;;
27428;SDS011;14881;48.092;11.574;2022-10-31T05:58:49;15.52;;;5.63;;
27428;SDS011;14881;48.092;11.574;2022-10-31T06:01:17;12.93;;;5.38;;
27428;SDS011;14881;48.092;11.574;2022-10-31T06:03:48;11.07;;;4.57;;
27428;SDS011;14881;48.092;11.574;2022-10-31T06:06:16;8.15;;;4.88;;
27428;SDS011;14881;48.092;11.574;2022-10-31T06:08:48;12.40;;;5.03;;
27428;SDS011;14881;48.092;11.574;2022-10-31T06:11:16;11.98;;;4.82;;
27428;SDS011;14881;48.092;11.574;2022-10-31T06:13:43;13.95;;;4.90;;
27428;SDS011;14881;48.092;11.574;2022-10-31T06:16:11;11.05;;;5.05;;
27428;SDS011;14881;48.092;11.574;2022-10-31T06:18:39;10.15;;;4.55;;
27428;SDS011;14881;48.092;11.574;2022-10-31T06:21:08;7.78;;;4.15;;
27428;SDS011;14881;48.092;11.574;2022-10-31T06:23:40;13.30;;;5.00;;
27428;SDS011;14881;48.092;11.574;2022-10-31T06:26:07;12.60;;;5.22;;
27428;SDS011;14881;48.092;11.574;2022-10-31T06:28:35;13.35;;;5.05;;
27428;SDS011;14881;48.092;11.574;2022-10-31T06:31:02;8.40;;;4.53;;
27428;SDS011;14881;48.092;11.574;2022-10-31T06:33:30;7.22;;;4.70;;
27428;SDS011;14881;48.092;11.574;2022-10-31T06:35:58;12.68;;;5.07;;
27428;SDS011;14881;48.092;11.574;2022-10-31T06:38:27;11.48;;;4.97;;
27428;SDS011;14881;48.092;11.574;2022-10-31T06:41:00;13.77;;;5.25;;
27428;SDS011;14881;48.092;11.574;2022-10-31T06:43:29;12.82;;;5.07;;
27428;SDS011;14881;48.092;11.574;2022-10-31T06:45:57;8.40;;;4.80;;
27428;SDS011;14881;48.092;11.574;2022-10-31T06:48:25;13.02;;;5.32;;
27428;SDS011;14881;48.092;11.574;2022-10-31T06:50:52;9.82;;;4.88;;
27428;SDS011;14881;48.092;11.574;2022-10-31T06:53:24;11.80;;;5.22;;
27428;SDS011;14881;48.092;11.574;2022-10-31T06:55:57;12.80;;;4.68;;
27428;SDS011;14881;48.092;11.574;2022-10-31T06:58:25;9.55;;;4.47;;
27428;SDS011;14881;48.092;11.574;2022-10-31T07:00:53;9.45;;;4.60;;
27428;SDS011;14881;48.092;11.574;2022-10-31T07:03:21;9.88;;;4.43;;
27428;SDS011;14881;48.092;11.574;2022-10-31T07:05:48;9.93;;;4.70;;
27428;SDS011;14881;48.092;11.574;2022-10-31T07:08:16;8.68;;;5.13;;
27428;SDS011;14881;48.092;11.574;2022-10-31T07:10:50;9.43;;;4.65;;
27428;SDS011;14881;48.092;11.574;2022-10-31T07:13:19;7.47;;;4.63;;
27428;SDS011;14881;48.092;11.574;2022-10-31T07:15:51;8.55;;;5.13;;
27428;SDS011;14881;48.092;11.574;2022-10-31T07:18:21;9.50;;;5.20;;
27428;SDS011;14881;48.092;11.574;2022-10-31T07:20:49;7.72;;;4.15;;
27428;SDS011;14881;48.092;11.574;2022-10-31T07:23:18;10.75;;;5.07;;
27428;SDS011;14881;48.092;11.574;2022-10-31T07:25:47;8.93;;;4.60;;
27428;SDS011;14881;48.092;11.574;2022-10-31T07:28:15;13.05;;;5.28;;
27428;SDS011;14881;48.092;11.574;2022-10-31T07:30:43;8.77;;;5.05;;
27428;SDS011;14881;48.092;11.574;2022-10-31T07:33:10;8.57;;;4.82;;
27428;SDS011;14881;48.092;11.574;2022-10-31T07:35:38;9.48;;;4.60;;
27428;SDS011;14881;48.092;11.574;2022-10-31T07:38:06;9.05;;;4.80;;
27428;SDS011;14881;48.092;11.574;2022-10-31T07:40:34;7.93;;;4.70;;
27428;SDS011;14881;48.092;11.574;2022-10-31T07:43:04;11.35;;;5.22;;
27428;SDS011;14881;48.092;11.574;2022-10-31T07:45:38;11.57;;;5.70;;
27428;SDS011;14881;48.092;11.574;2022-10-31T07:48:06;8.55;;;4.72;;
27428;SDS011;14881;48.092;11.574;2022-10-31T07:50:35;8.98;;;4.70;;
27428;SDS011;14881;48.092;11.574;2022-10-31T07:53:03;11.32;;;4.88;;
27428;SDS011;14881;48.092;11.574;2022-10-31T07:55:32;11.48;;;5.95;;
27428;SDS011;14881;48.092;11.574;2022-10-31T07:58:01;11.82;;;5.40;;
27428;SDS011;14881;48.092;11.574;2022-10-31T08:00:32;11.07;;;5.25;;
27428;SDS011;14881;48.092;11.574;2022-10-31T08:03:01;12.15;;;5.38;;
27428;SDS011;14881;48.092;11.574;2022-10-31T08:05:31;8.93;;;5.15;;
27428;SDS011;14881;48.092;11.574;2022-10-31T08:07:59;9.25;;;5.05;;
27428;SDS011;14881;48.092;11.574;2022-10-31T08:10:28;7.53;;;5.07;;
27428;SDS011;14881;48.092;11.574;2022-10-31T08:12:56;11.18;;;5.18;;
27428;SDS011;14881;48.092;11.574;2022-10-31T08:15:25;8.82;;;5.00;;
27428;SDS011;14881;48.092;11.574;2022-10-31T08:17:54;15.07;;;5.10;;
27428;SDS011;14881;48.092;11.574;2022-10-31T08:20:23;9.55;;;4.93;;
27428;SDS011;14881;48.092;11.574;2022-10-31T08:22:54;11.10;;;4.50;;
27428;SDS011;14881;48.092;11.574;2022-10-31T08:25:23;8.27;;;4.50;;
27428;SDS011;14881;48.092;11.574;2022-10-31T08:27:51;14.98;;;4.40;;
27428;SDS011;14881;48.092;11.574;2022-10-31T08:30:20;11.32;;;4.32;;
27428;SDS011;14881;48.092;11.574;2022-10-31T08:32:57;15.23;;;5.35;;
27428;SDS011;14881;48.092;11.574;2022-10-31T08:35:26;11.02;;;4.95;;
27428;SDS011;14881;48.092;11.574;2022-10-31T08:37:56;15.38;;;5.45;;
27428;SDS011;14881;48.092;11.574;2022-10-31T08:40:25;8.60;;;4.97;;
27428;SDS011;14881;48.092;11.574;2022-10-31T08:42:57;14.27;;;5.00;;
27428;SDS011;14881;48.092;11.574;2022-10-31T08:45:26;14.52;;;5.75;;
27428;SDS011;14881;48.092;11.574;2022-10-31T08:47:58;11.52;;;6.70;;
27428;SDS011;14881;48.092;11.574;2022-10-31T08:53:01;13.55;;;7.55;;
27428;SDS011;14881;48.092;11.574;2022-10-31T08:55:32;19.20;;;8.63;;
27428;SDS011;14881;48.092;11.574;2022-10-31T08:58:03;22.05;;;10.18;;
27428;SDS011;14881;48.092;11.574;2022-10-31T09:00:31;17.42;;;10.30;;
27428;SDS011;14881;48.092;11.574;2022-10-31T09:03:02;17.88;;;11.00;;
27428;SDS011;14881;48.092;11.574;2022-10-31T09:05:31;21.30;;;9.75;;
27428;SDS011;14881;48.092;11.574;2022-10-31T09:07:59;24.73;;;10.10;;
27428;SDS011;14881;48.092;11.574;2022-10-31T09:10:32;24.17;;;9.20;;
27428;SDS011;14881;48.092;11.574;2022-10-31T09:13:02;15.32;;;8.20;;
27428;SDS011;14881;48.092;11.574;2022-10-31T09:15:32;15.55;;;8.52;;
27428;SDS011;14881;48.092;11.574;2022-10-31T09:18:03;16.33;;;7.38;;
27428;SDS011;14881;48.092;11.574;2022-10-31T09:20:31;13.30;;;7.15;;
27428;SDS011;14881;48.092;11.574;2022-10-31T09:23:01;14.68;;;7.00;;
27428;SDS011;14881;48.092;11.574;2022-10-31T09:25:30;15.45;;;7.32;;
27428;SDS011;14881;48.092;11.574;2022-10-31T09:27:57;22.27;;;6.72;;
27428;SDS011;14881;48.092;11.574;2022-10-31T09:30:27;12.70;;;5.80;;
27428;SDS011;14881;48.092;11.574;2022-10-31T09:32:56;19.42;;;6.18;;
27428;SDS011;14881;48.092;11.574;2022-10-31T09:35:26;14.70;;;5.53;;
27428;SDS011;14881;48.092;11.574;2022-10-31T09:37:55;11.45;;;5.65;;
27428;SDS011;14881;48.092;11.574;2022-10-31T09:40:24;12.50;;;5.18;;
27428;SDS011;14881;48.092;11.574;2022-10-31T09:42:59;14.05;;;5.20;;
27428;SDS011;14881;48.092;11.574;2022-10-31T09:45:36;12.88;;;4.43;;
27428;SDS011;14881;48.092;11.574;2022-10-31T09:48:13;17.48;;;5.22;;
27428;SDS011;14881;48.092;11.574;2022-10-31T09:50:52;12.00;;;4.13;;
27428;SDS011;14881;48.092;11.574;2022-10-31T09:53:26;12.27;;;3.90;;
27428;SDS011;14881;48.092;11.574;2022-10-31T09:56:01;14.00;;;4.20;;
27428;SDS011;14881;48.092;11.574;2022-10-31T09:58:32;12.98;;;4.72;;
27428;SDS011;14881;48.092;11.574;2022-10-31T10:01:09;8.32;;;4.00;;
27428;SDS011;14881;48.092;11.574;2022-10-31T10:03:55;14.50;;;4.68;;
27428;SDS011;14881;48.092;11.574;2022-10-31T10:06:29;13.15;;;4.53;;
27428;SDS011;14881;48.092;11.574;2022-10-31T10:09:02;11.70;;;4.93;;
27428;SDS011;14881;48.092;11.574;2022-10-31T10:11:33;9.18;;;3.67;;
27428;SDS011;14881;48.092;11.574;2022-10-31T10:14:14;12.15;;;4.18;;
27428;SDS011;14881;48.092;11.574;2022-10-31T10:17:04;10.75;;;3.60;;
27428;SDS011;14881;48.092;11.574;2022-10-31T10:19:50;10.98;;;3.72;;
27428;SDS011;14881;48.092;11.574;2022-10-31T10:22:46;9.38;;;3.78;;
27428;SDS011;14881;48.092;11.574;2022-10-31T10:25:20;8.35;;;3.42;;
27428;SDS011;14881;48.092;11.574;2022-10-31T10:27:57;7.97;;;3.22;;
27428;SDS011;14881;48.092;11.574;2022-10-31T10:30:35;14.73;;;3.95;;
27428;SDS011;14881;48.092;11.574;2022-10-31T10:33:09;11.23;;;3.53;;
27428;SDS011;14881;48.092;11.574;2022-10-31T10:35:40;8.43;;;3.45;;
27428;SDS011;14881;48.092;11.574;2022-10-31T10:38:15;7.80;;;3.15;;
27428;SDS011;14881;48.092;11.574;2022-10-31T10:40:47;10.18;;;3.47;;
27428;SDS011;14881;48.092;11.574;2022-10-31T10:43:20;7.70;;;3.30;;
27428;SDS011;14881;48.092;11.574;2022-10-31T10:45:52;10.95;;;3.60;;
27428;SDS011;14881;48.092;11.574;2022-10-31T10:48:46;13.05;;;3.80;;
27428;SDS011;14881;48.092;11.574;2022-10-31T10:51:20;13.85;;;3.63;;
27428;SDS011;14881;48.092;11.574;2022-10-31T10:54:15;9.80;;;3.30;;
27428;SDS011;14881;48.092;11.574;2022-10-31T10:57:06;12.18;;;3.65;;
27428;SDS011;14881;48.092;11.574;2022-10-31T10:59:47;10.80;;;3.97;;
27428;SDS011;14881;48.092;11.574;2022-10-31T11:02:16;7.80;;;3.53;;
27428;SDS011;14881;48.092;11.574;2022-10-31T11:04:47;10.98;;;3.70;;
27428;SDS011;14881;48.092;11.574;2022-10-31T11:07:18;16.17;;;3.65;;
27428;SDS011;14881;48.092;11.574;2022-10-31T11:09:47;13.50;;;3.85;;
27428;SDS011;14881;48.092;11.574;2022-10-31T11:12:20;13.45;;;4.07;;
27428;SDS011;14881;48.092;11.574;2022-10-31T11:14:52;11.82;;;4.07;;
27428;SDS011;14881;48.092;11.574;2022-10-31T11:17:26;7.80;;;3.35;;
27428;SDS011;14881;48.092;11.574;2022-10-31T11:20:00;12.45;;;3.60;;
27428;SDS011;14881;48.092;11.574;2022-10-31T11:22:29;11.77;;;3.17;;
27428;SDS011;14881;48.092;11.574;2022-10-31T11:24:58;12.00;;;3.60;;
27428;SDS011;14881;48.092;11.574;2022-10-31T11:27:26;16.50;;;4.07;;
27428;SDS011;14881;48.092;11.574;2022-10-31T11:30:03;12.50;;;4.07;;
27428;SDS011;14881;48.092;11.574;2022-10-31T11:32:32;10.85;;;3.40;;
27428;SDS011;14881;48.092;11.574;2022-10-31T11:35:01;10.27;;;3.53;;
27428;SDS011;14881;48.092;11.574;2022-10-31T11:37:40;9.60;;;3.28;;
27428;SDS011;14881;48.092;11.574;2022-10-31T11:40:16;11.10;;;3.35;;
27428;SDS011;14881;48.092;11.574;2022-10-31T11:42:46;8.52;;;3.53;;
27428;SDS011;14881;48.092;11.574;2022-10-31T11:45:16;11.90;;;3.70;;
27428;SDS011;14881;48.092;11.574;2022-10-31T11:47:46;10.27;;;3.22;;
27428;SDS011;14881;48.092;11.574;2022-10-31T11:50:24;9.27;;;3.40;;
27428;SDS011;14881;48.092;11.574;2022-10-31T11:52:54;12.60;;;4.07;;
27428;SDS011;14881;48.092;11.574;2022-10-31T11:55:31;11.32;;;2.97;;
27428;SDS011;14881;48.092;11.574;2022-10-31T11:58:00;9.38;;;3.53;;
27428;SDS011;14881;48.092;11.574;2022-10-31T12:00:29;10.10;;;3.65;;
27428;SDS011;14881;48.092;11.574;2022-10-31T12:03:10;11.07;;;3.30;;
27428;SDS011;14881;48.092;11.574;2022-10-31T12:05:49;11.63;;;3.25;;
27428;SDS011;14881;48.092;11.574;2022-10-31T12:08:21;17.40;;;3.95;;
27428;SDS011;14881;48.092;11.574;2022-10-31T12:10:51;11.38;;;3.50;;
27428;SDS011;14881;48.092;11.574;2022-10-31T12:13:31;11.95;;;3.58;;
27428;SDS011;14881;48.092;11.574;2022-10-31T12:16:03;16.05;;;4.30;;
27428;SDS011;14881;48.092;11.574;2022-10-31T12:21:34;9.50;;;3.33;;
27428;SDS011;14881;48.092;11.574;2022-10-31T12:24:15;7.97;;;3.33;;
27428;SDS011;14881;48.092;11.574;2022-10-31T12:27:08;9.43;;;3.80;;
27428;SDS011;14881;48.092;11.574;2022-10-31T12:29:51;11.23;;;3.75;;
27428;SDS011;14881;48.092;11.574;2022-10-31T12:32:33;10.88;;;4.13;;
27428;SDS011;14881;48.092;11.574;2022-10-31T12:35:17;8.55;;;3.05;;
27428;SDS011;14881;48.092;11.574;2022-10-31T12:37:55;12.25;;;3.63;;
27428;SDS011;14881;48.092;11.574;2022-10-31T12:40:40;11.48;;;3.75;;
27428;SDS011;14881;48.092;11.574;2022-10-31T12:43:23;12.82;;;3.95;;
27428;SDS011;14881;48.092;11.574;2022-10-31T12:46:02;14.10;;;4.38;;
27428;SDS011;14881;48.092;11.574;2022-10-31T12:48:42;10.52;;;3.67;;
27428;SDS011;14881;48.092;11.574;2022-10-31T12:51:24;11.07;;;3.50;;
27428;SDS011;14881;48.092;11.574;2022-10-31T12:54:12;10.13;;;3.38;;
27428;SDS011;14881;48.092;11.574;2022-10-31T12:56:53;18.00;;;3.95;;
27428;SDS011;14881;48.092;11.574;2022-10-31T12:59:31;8.98;;;3.70;;
27428;SDS011;14881;48.092;11.574;2022-10-31T13:02:04;11.05;;;3.78;;
27428;SDS011;14881;48.092;11.574;2022-10-31T13:04:42;14.02;;;3.90;;
27428;SDS011;14881;48.092;11.574;2022-10-31T13:07:15;12.73;;;3.80;;
27428;SDS011;14881;48.092;11.574;2022-10-31T13:09:48;10.88;;;3.28;;
27428;SDS011;14881;48.092;11.574;2022-10-31T13:12:23;11.25;;;3.58;;
27428;SDS011;14881;48.092;11.574;2022-10-31T13:14:59;12.30;;;4.10;;
27428;SDS011;14881;48.092;11.574;2022-10-31T13:17:33;12.90;;;3.70;;
27428;SDS011;14881;48.092;11.574;2022-10-31T13:22:53;13.77;;;4.30;;
27428;SDS011;14881;48.092;11.574;2022-10-31T13:25:24;10.38;;;3.25;;
27428;SDS011;14881;48.092;11.574;2022-10-31T13:27:58;11.98;;;3.78;;
27428;SDS011;14881;48.092;11.574;2022-10-31T13:30:31;6.80;;;3.67;;
27428;SDS011;14881;48.092;11.574;2022-10-31T13:33:01;10.15;;;4.20;;
27428;SDS011;14881;48.092;11.574;2022-10-31T13:35:33;10.00;;;3.72;;
27428;SDS011;14881;48.092;11.574;2022-10-31T13:38:11;12.45;;;4.50;;
27428;SDS011;14881;48.092;11.574;2022-10-31T13:40:45;10.45;;;3.95;;
27428;SDS011;14881;48.092;11.574;2022-10-31T13:43:23;10.73;;;3.92;;
27428;SDS011;14881;48.092;11.574;2022-10-31T13:45:58;11.98;;;4.50;;
27428;SDS011;14881;48.092;11.574;2022-10-31T13:51:11;9.10;;;3.65;;
27428;SDS011;14881;48.092;11.574;2022-10-31T13:53:45;9.02;;;4.22;;
27428;SDS011;14881;48.092;11.574;2022-10-31T13:56:25;9.45;;;3.67;;
27428;SDS011;14881;48.092;11.574;2022-10-31T13:59:03;13.50;;;3.95;;
27428;SDS011;14881;48.092;11.574;2022-10-31T14:01:49;16.23;;;4.18;;
27428;SDS011;14881;48.092;11.574;2022-10-31T14:04:20;12.82;;;4.13;;
27428;SDS011;14881;48.092;11.574;2022-10-31T14:06:55;11.32;;;4.22;;
27428;SDS011;14881;48.092;11.574;2022-10-31T14:09:27;11.43;;;4.78;;
27428;SDS011;14881;48.092;11.574;2022-10-31T14:12:02;10.45;;;4.80;;
27428;SDS011;14881;48.092;11.574;2022-10-31T14:14:33;10.05;;;4.18;;
27428;SDS011;14881;48.092;11.574;2022-10-31T14:17:14;13.73;;;5.07;;
27428;SDS011;14881;48.092;11.574;2022-10-31T14:19:56;16.55;;;4.65;;
27428;SDS011;14881;48.092;11.574;2022-10-31T14:22:29;10.98;;;4.32;;
27428;SDS011;14881;48.092;11.574;2022-10-31T14:25:00;14.80;;;4.07;;
27428;SDS011;14881;48.092;11.574;2022-10-31T14:27:42;12.07;;;4.43;;
27428;SDS011;14881;48.092;11.574;2022-10-31T14:30:14;18.33;;;5.13;;
27428;SDS011;14881;48.092;11.574;2022-10-31T14:32:45;11.60;;;5.15;;
27428;SDS011;14881;48.092;11.574;2022-10-31T14:35:17;13.48;;;4.22;;
27428;SDS011;14881;48.092;11.574;2022-10-31T14:37:53;13.73;;;4.82;;
27428;SDS011;14881;48.092;11.574;2022-10-31T14:40:34;15.38;;;5.15;;
27428;SDS011;14881;48.092;11.574;2022-10-31T14:43:23;14.45;;;5.18;;
27428;SDS011;14881;48.092;11.574;2022-10-31T14:46:03;18.77;;;5.30;;
27428;SDS011;14881;48.092;11.574;2022-10-31T14:48:46;13.40;;;4.70;;
27428;SDS011;14881;48.092;11.574;2022-10-31T14:51:34;9.27;;;4.72;;
27428;SDS011;14881;48.092;11.574;2022-10-31T14:54:04;16.98;;;5.07;;
27428;SDS011;14881;48.092;11.574;2022-10-31T14:56:39;10.05;;;4.53;;
27428;SDS011;14881;48.092;11.574;2022-10-31T15:01:48;14.15;;;5.35;;
27428;SDS011;14881;48.092;11.574;2022-10-31T15:04:23;12.25;;;6.13;;
27428;SDS011;14881;48.092;11.574;2022-10-31T15:06:53;13.05;;;5.10;;
27428;SDS011;14881;48.092;11.574;2022-10-31T15:09:26;14.73;;;5.22;;
27428;SDS011;14881;48.092;11.574;2022-10-31T15:11:57;17.85;;;5.53;;
27428;SDS011;14881;48.092;11.574;2022-10-31T15:14:26;12.45;;;5.57;;